sensor_id;sensor_type;location;lat;lon;timestamp;temperature;humidity
22450;DHT22;11392;57.390;-2.468;2023-05-27T00:02:10;13.40;99.90
22450;DHT22;11392;57.390;-2.468;2023-05-27T00:12:57;13.30;99.90
22450;DHT22;11392;57.390;-2.468;2023-05-27T00:24:10;13.30;99.90
22450;DHT22;11392;57.390;-2.468;2023-05-27T00:26:37;13.20;99.90
22450;DHT22;11392;57.390;-2.468;2023-05-27T00:29:06;13.20;99.90
22450;DHT22;11392;57.390;-2.468;2023-05-27T00:31:33;13.30;99.90
22450;DHT22;11392;57.390;-2.468;2023-05-27T00:34:01;13.30;99.90
22450;DHT22;11392;57.390;-2.468;2023-05-27T00:36:28;13.30;99.90
22450;DHT22;11392;57.390;-2.468;2023-05-27T00:38:54;13.30;99.90
22450;DHT22;11392;57.390;-2.468;2023-05-27T00:41:22;13.30;99.90
22450;DHT22;11392;57.390;-2.468;2023-05-27T01:05:19;13.10;99.90
22450;DHT22;11392;57.390;-2.468;2023-05-27T01:15:48;13.10;99.90
22450;DHT22;11392;57.390;-2.468;2023-05-27T01:18:19;13.00;99.90
22450;DHT22;11392;57.390;-2.468;2023-05-27T01:26:04;12.80;99.90
22450;DHT22;11392;57.390;-2.468;2023-05-27T01:28:46;12.70;99.90
22450;DHT22;11392;57.390;-2.468;2023-05-27T01:31:21;12.50;99.90
22450;DHT22;11392;57.390;-2.468;2023-05-27T01:41:55;12.10;99.90
22450;DHT22;11392;57.390;-2.468;2023-05-27T01:44:24;12.20;99.90
22450;DHT22;11392;57.390;-2.468;2023-05-27T01:46:51;12.20;99.90
22450;DHT22;11392;57.390;-2.468;2023-05-27T01:49:25;12.10;99.90
22450;DHT22;11392;57.390;-2.468;2023-05-27T01:51:52;12.20;99.90
22450;DHT22;11392;57.390;-2.468;2023-05-27T01:54:19;12.20;99.90
22450;DHT22;11392;57.390;-2.468;2023-05-27T01:56:47;12.20;99.90
22450;DHT22;11392;57.390;-2.468;2023-05-27T02:04:54;12.10;99.90
22450;DHT22;11392;57.390;-2.468;2023-05-27T02:07:21;12.00;99.90
22450;DHT22;11392;57.390;-2.468;2023-05-27T02:09:50;11.90;99.90
22450;DHT22;11392;57.390;-2.468;2023-05-27T02:12:19;11.80;99.90
22450;DHT22;11392;57.390;-2.468;2023-05-27T02:14:47;11.60;99.90
22450;DHT22;11392;57.390;-2.468;2023-05-27T02:17:15;11.60;99.90
22450;DHT22;11392;57.390;-2.468;2023-05-27T02:19:43;11.60;99.90
22450;DHT22;11392;57.390;-2.468;2023-05-27T02:22:12;11.60;99.90
22450;DHT22;11392;57.390;-2.468;2023-05-27T02:24:39;11.50;99.90
22450;DHT22;11392;57.390;-2.468;2023-05-27T02:27:07;11.50;99.90
22450;DHT22;11392;57.390;-2.468;2023-05-27T02:32:09;11.40;99.90
22450;DHT22;11392;57.390;-2.468;2023-05-27T02:34:36;11.40;99.90
22450;DHT22;11392;57.390;-2.468;2023-05-27T02:37:04;11.50;99.90
22450;DHT22;11392;57.390;-2.468;2023-05-27T02:39:32;11.60;99.90
22450;DHT22;11392;57.390;-2.468;2023-05-27T02:41:59;11.50;99.90
22450;DHT22;11392;57.390;-2.468;2023-05-27T02:44:26;11.50;99.90
22450;DHT22;11392;57.390;-2.468;2023-05-27T02:46:53;11.60;99.90
22450;DHT22;11392;57.390;-2.468;2023-05-27T02:49:20;11.50;99.90
22450;DHT22;11392;57.390;-2.468;2023-05-27T02:54:23;11.60;99.90
22450;DHT22;11392;57.390;-2.468;2023-05-27T02:59:25;11.70;99.90
22450;DHT22;11392;57.390;-2.468;2023-05-27T03:01:53;11.70;99.90
22450;DHT22;11392;57.390;-2.468;2023-05-27T03:04:21;11.80;99.90
22450;DHT22;11392;57.390;-2.468;2023-05-27T03:06:48;11.80;99.90
22450;DHT22;11392;57.390;-2.468;2023-05-27T03:09:15;11.80;99.90
22450;DHT22;11392;57.390;-2.468;2023-05-27T03:11:42;11.90;99.90
22450;DHT22;11392;57.390;-2.468;2023-05-27T03:14:09;11.90;99.90
22450;DHT22;11392;57.390;-2.468;2023-05-27T03:16:36;11.80;99.90
22450;DHT22;11392;57.390;-2.468;2023-05-27T03:19:04;11.90;99.90
22450;DHT22;11392;57.390;-2.468;2023-05-27T03:21:31;12.00;99.90
22450;DHT22;11392;57.390;-2.468;2023-05-27T03:23:59;12.00;99.90
22450;DHT22;11392;57.390;-2.468;2023-05-27T03:26:26;12.10;99.90
22450;DHT22;11392;57.390;-2.468;2023-05-27T03:28:55;12.10;99.90
22450;DHT22;11392;57.390;-2.468;2023-05-27T03:31:22;12.20;99.90
22450;DHT22;11392;57.390;-2.468;2023-05-27T03:33:49;12.20;99.90
22450;DHT22;11392;57.390;-2.468;2023-05-27T03:36:17;12.20;99.90
22450;DHT22;11392;57.390;-2.468;2023-05-27T03:38:44;12.30;99.90
22450;DHT22;11392;57.390;-2.468;2023-05-27T03:41:11;12.20;99.90
22450;DHT22;11392;57.390;-2.468;2023-05-27T03:43:38;12.30;99.90
22450;DHT22;11392;57.390;-2.468;2023-05-27T03:46:06;12.40;99.90
22450;DHT22;11392;57.390;-2.468;2023-05-27T03:48:34;12.40;99.90
22450;DHT22;11392;57.390;-2.468;2023-05-27T03:51:01;12.30;99.90
22450;DHT22;11392;57.390;-2.468;2023-05-27T03:53:29;12.30;99.90
22450;DHT22;11392;57.390;-2.468;2023-05-27T03:55:56;12.30;99.90
22450;DHT22;11392;57.390;-2.468;2023-05-27T03:58:23;12.30;99.90
22450;DHT22;11392;57.390;-2.468;2023-05-27T04:00:50;12.30;99.90
22450;DHT22;11392;57.390;-2.468;2023-05-27T04:03:18;12.30;99.90
22450;DHT22;11392;57.390;-2.468;2023-05-27T04:05:46;12.30;99.90
22450;DHT22;11392;57.390;-2.468;2023-05-27T04:08:13;12.30;99.90
22450;DHT22;11392;57.390;-2.468;2023-05-27T04:10:40;12.20;99.90
22450;DHT22;11392;57.390;-2.468;2023-05-27T04:13:08;12.20;99.90
22450;DHT22;11392;57.390;-2.468;2023-05-27T04:15:35;12.20;99.90
22450;DHT22;11392;57.390;-2.468;2023-05-27T04:18:02;12.30;99.90
22450;DHT22;11392;57.390;-2.468;2023-05-27T04:20:37;12.30;99.90
22450;DHT22;11392;57.390;-2.468;2023-05-27T04:23:07;12.30;99.90
22450;DHT22;11392;57.390;-2.468;2023-05-27T04:25:35;12.30;99.90
22450;DHT22;11392;57.390;-2.468;2023-05-27T04:28:02;12.40;99.90
22450;DHT22;11392;57.390;-2.468;2023-05-27T04:30:32;12.40;99.90
22450;DHT22;11392;57.390;-2.468;2023-05-27T04:33:00;12.40;99.90
22450;DHT22;11392;57.390;-2.468;2023-05-27T04:35:27;12.40;99.90
22450;DHT22;11392;57.390;-2.468;2023-05-27T04:37:57;12.40;99.90
22450;DHT22;11392;57.390;-2.468;2023-05-27T04:40:30;12.40;99.90
22450;DHT22;11392;57.390;-2.468;2023-05-27T04:45:34;12.40;99.90
22450;DHT22;11392;57.390;-2.468;2023-05-27T04:50:30;12.20;99.90
22450;DHT22;11392;57.390;-2.468;2023-05-27T04:52:57;12.30;99.90
22450;DHT22;11392;57.390;-2.468;2023-05-27T04:55:28;12.30;99.90
22450;DHT22;11392;57.390;-2.468;2023-05-27T04:57:55;12.30;99.90
22450;DHT22;11392;57.390;-2.468;2023-05-27T05:00:23;12.40;99.90
22450;DHT22;11392;57.390;-2.468;2023-05-27T05:05:26;12.50;99.90
22450;DHT22;11392;57.390;-2.468;2023-05-27T05:07:55;12.50;99.90
22450;DHT22;11392;57.390;-2.468;2023-05-27T05:10:22;12.50;99.90
22450;DHT22;11392;57.390;-2.468;2023-05-27T05:12:49;12.50;99.90
22450;DHT22;11392;57.390;-2.468;2023-05-27T05:15:17;12.50;99.90
22450;DHT22;11392;57.390;-2.468;2023-05-27T05:17:44;12.50;99.90
22450;DHT22;11392;57.390;-2.468;2023-05-27T05:20:11;12.60;99.90
22450;DHT22;11392;57.390;-2.468;2023-05-27T05:22:39;12.70;99.90
22450;DHT22;11392;57.390;-2.468;2023-05-27T05:25:06;12.70;99.90
22450;DHT22;11392;57.390;-2.468;2023-05-27T05:27:33;12.80;99.90
22450;DHT22;11392;57.390;-2.468;2023-05-27T05:30:01;12.90;99.90
22450;DHT22;11392;57.390;-2.468;2023-05-27T05:32:28;13.10;99.90
22450;DHT22;11392;57.390;-2.468;2023-05-27T05:34:55;13.10;99.90
22450;DHT22;11392;57.390;-2.468;2023-05-27T05:37:22;13.10;99.90
22450;DHT22;11392;57.390;-2.468;2023-05-27T05:39:49;13.20;99.90
22450;DHT22;11392;57.390;-2.468;2023-05-27T05:42:16;13.20;99.90
22450;DHT22;11392;57.390;-2.468;2023-05-27T05:44:44;13.20;99.90
22450;DHT22;11392;57.390;-2.468;2023-05-27T05:47:11;13.30;99.90
22450;DHT22;11392;57.390;-2.468;2023-05-27T05:49:38;13.30;99.90
22450;DHT22;11392;57.390;-2.468;2023-05-27T05:52:05;13.30;99.90
22450;DHT22;11392;57.390;-2.468;2023-05-27T05:54:32;13.40;99.90
22450;DHT22;11392;57.390;-2.468;2023-05-27T05:57:00;13.40;99.90
22450;DHT22;11392;57.390;-2.468;2023-05-27T05:59:29;13.50;99.90
22450;DHT22;11392;57.390;-2.468;2023-05-27T06:01:56;13.40;99.90
22450;DHT22;11392;57.390;-2.468;2023-05-27T06:04:23;13.40;99.90
22450;DHT22;11392;57.390;-2.468;2023-05-27T06:06:50;13.30;99.90
22450;DHT22;11392;57.390;-2.468;2023-05-27T06:09:19;13.40;99.90
22450;DHT22;11392;57.390;-2.468;2023-05-27T06:11:47;13.30;99.90
22450;DHT22;11392;57.390;-2.468;2023-05-27T06:14:14;13.30;99.90
22450;DHT22;11392;57.390;-2.468;2023-05-27T06:16:41;13.40;99.90
22450;DHT22;11392;57.390;-2.468;2023-05-27T06:19:08;13.50;99.90
22450;DHT22;11392;57.390;-2.468;2023-05-27T06:21:35;13.50;99.90
22450;DHT22;11392;57.390;-2.468;2023-05-27T06:24:03;13.70;99.90
22450;DHT22;11392;57.390;-2.468;2023-05-27T06:26:30;13.70;99.90
22450;DHT22;11392;57.390;-2.468;2023-05-27T06:28:57;13.80;99.90
22450;DHT22;11392;57.390;-2.468;2023-05-27T06:31:25;13.80;99.90
22450;DHT22;11392;57.390;-2.468;2023-05-27T06:33:54;13.70;99.90
22450;DHT22;11392;57.390;-2.468;2023-05-27T06:36:21;13.70;99.90
22450;DHT22;11392;57.390;-2.468;2023-05-27T06:38:48;13.70;99.90
22450;DHT22;11392;57.390;-2.468;2023-05-27T06:41:15;13.80;99.90
22450;DHT22;11392;57.390;-2.468;2023-05-27T06:43:42;13.70;99.90
22450;DHT22;11392;57.390;-2.468;2023-05-27T06:46:10;13.80;99.90
22450;DHT22;11392;57.390;-2.468;2023-05-27T06:48:37;13.80;99.90
22450;DHT22;11392;57.390;-2.468;2023-05-27T06:51:05;13.90;99.90
22450;DHT22;11392;57.390;-2.468;2023-05-27T06:53:33;14.00;99.90
22450;DHT22;11392;57.390;-2.468;2023-05-27T06:56:00;14.00;99.90
22450;DHT22;11392;57.390;-2.468;2023-05-27T06:58:27;14.00;99.90
22450;DHT22;11392;57.390;-2.468;2023-05-27T07:00:54;13.90;99.90
22450;DHT22;11392;57.390;-2.468;2023-05-27T07:03:21;13.80;99.90
22450;DHT22;11392;57.390;-2.468;2023-05-27T07:05:48;13.80;99.90
22450;DHT22;11392;57.390;-2.468;2023-05-27T07:08:15;13.60;99.90
22450;DHT22;11392;57.390;-2.468;2023-05-27T07:10:43;13.70;99.90
22450;DHT22;11392;57.390;-2.468;2023-05-27T07:13:10;13.70;99.90
22450;DHT22;11392;57.390;-2.468;2023-05-27T07:15:37;13.60;99.90
22450;DHT22;11392;57.390;-2.468;2023-05-27T07:18:04;13.60;99.90
22450;DHT22;11392;57.390;-2.468;2023-05-27T07:20:33;13.60;99.90
22450;DHT22;11392;57.390;-2.468;2023-05-27T07:23:01;13.70;99.90
22450;DHT22;11392;57.390;-2.468;2023-05-27T07:25:28;13.80;99.90
22450;DHT22;11392;57.390;-2.468;2023-05-27T07:27:55;13.90;99.90
22450;DHT22;11392;57.390;-2.468;2023-05-27T07:30:22;14.00;99.90
22450;DHT22;11392;57.390;-2.468;2023-05-27T07:32:49;13.90;99.90
22450;DHT22;11392;57.390;-2.468;2023-05-27T07:35:17;13.90;99.90
22450;DHT22;11392;57.390;-2.468;2023-05-27T07:37:44;13.80;99.90
22450;DHT22;11392;57.390;-2.468;2023-05-27T07:40:11;13.80;99.90
22450;DHT22;11392;57.390;-2.468;2023-05-27T07:42:38;14.00;99.90
22450;DHT22;11392;57.390;-2.468;2023-05-27T07:45:06;14.10;99.90
22450;DHT22;11392;57.390;-2.468;2023-05-27T07:47:34;14.00;99.90
22450;DHT22;11392;57.390;-2.468;2023-05-27T07:50:01;14.00;99.90
22450;DHT22;11392;57.390;-2.468;2023-05-27T07:52:28;14.20;99.90
22450;DHT22;11392;57.390;-2.468;2023-05-27T07:54:55;14.20;99.90
22450;DHT22;11392;57.390;-2.468;2023-05-27T07:57:24;14.20;99.90
22450;DHT22;11392;57.390;-2.468;2023-05-27T07:59:52;14.20;99.90
22450;DHT22;11392;57.390;-2.468;2023-05-27T08:02:19;14.20;99.90
22450;DHT22;11392;57.390;-2.468;2023-05-27T08:04:48;14.20;99.90
22450;DHT22;11392;57.390;-2.468;2023-05-27T08:07:17;14.20;99.90
22450;DHT22;11392;57.390;-2.468;2023-05-27T08:09:44;14.60;99.90
22450;DHT22;11392;57.390;-2.468;2023-05-27T08:12:11;15.40;99.90
22450;DHT22;11392;57.390;-2.468;2023-05-27T08:14:39;16.10;99.90
22450;DHT22;11392;57.390;-2.468;2023-05-27T08:17:10;16.20;99.90
22450;DHT22;11392;57.390;-2.468;2023-05-27T08:19:37;16.60;99.90
22450;DHT22;11392;57.390;-2.468;2023-05-27T08:22:04;17.20;99.90
22450;DHT22;11392;57.390;-2.468;2023-05-27T08:24:35;17.50;99.90
22450;DHT22;11392;57.390;-2.468;2023-05-27T08:27:02;17.90;99.90
22450;DHT22;11392;57.390;-2.468;2023-05-27T08:29:32;18.00;99.90
22450;DHT22;11392;57.390;-2.468;2023-05-27T08:32:00;18.20;99.90
22450;DHT22;11392;57.390;-2.468;2023-05-27T08:34:27;18.50;99.90
22450;DHT22;11392;57.390;-2.468;2023-05-27T08:36:55;18.30;99.90
22450;DHT22;11392;57.390;-2.468;2023-05-27T08:39:22;18.50;99.90
22450;DHT22;11392;57.390;-2.468;2023-05-27T08:41:49;18.80;99.90
22450;DHT22;11392;57.390;-2.468;2023-05-27T08:44:17;19.10;99.90
22450;DHT22;11392;57.390;-2.468;2023-05-27T08:46:51;19.60;99.90
22450;DHT22;11392;57.390;-2.468;2023-05-27T08:49:18;19.70;99.90
22450;DHT22;11392;57.390;-2.468;2023-05-27T08:51:46;19.60;99.90
22450;DHT22;11392;57.390;-2.468;2023-05-27T08:54:13;19.40;99.90
22450;DHT22;11392;57.390;-2.468;2023-05-27T08:56:40;19.50;99.90
22450;DHT22;11392;57.390;-2.468;2023-05-27T08:59:12;19.20;99.90
22450;DHT22;11392;57.390;-2.468;2023-05-27T09:01:39;18.70;99.90
22450;DHT22;11392;57.390;-2.468;2023-05-27T09:04:07;18.50;99.90
22450;DHT22;11392;57.390;-2.468;2023-05-27T09:06:35;18.30;99.90
22450;DHT22;11392;57.390;-2.468;2023-05-27T09:09:02;17.90;99.90
22450;DHT22;11392;57.390;-2.468;2023-05-27T09:11:29;17.60;99.90
22450;DHT22;11392;57.390;-2.468;2023-05-27T09:14:02;17.40;99.90
22450;DHT22;11392;57.390;-2.468;2023-05-27T09:16:29;17.10;99.90
22450;DHT22;11392;57.390;-2.468;2023-05-27T09:18:57;16.90;99.90
22450;DHT22;11392;57.390;-2.468;2023-05-27T09:21:25;16.70;99.90
22450;DHT22;11392;57.390;-2.468;2023-05-27T09:23:56;16.50;99.90
22450;DHT22;11392;57.390;-2.468;2023-05-27T09:26:27;16.40;99.90
22450;DHT22;11392;57.390;-2.468;2023-05-27T09:28:54;16.30;99.90
22450;DHT22;11392;57.390;-2.468;2023-05-27T09:31:24;16.20;99.90
22450;DHT22;11392;57.390;-2.468;2023-05-27T09:33:51;16.10;99.90
22450;DHT22;11392;57.390;-2.468;2023-05-27T09:36:20;16.10;99.90
22450;DHT22;11392;57.390;-2.468;2023-05-27T09:38:49;16.30;99.90
22450;DHT22;11392;57.390;-2.468;2023-05-27T09:41:23;16.40;99.90
22450;DHT22;11392;57.390;-2.468;2023-05-27T09:43:54;16.40;99.90
22450;DHT22;11392;57.390;-2.468;2023-05-27T09:46:23;16.40;99.90
22450;DHT22;11392;57.390;-2.468;2023-05-27T09:48:51;16.20;99.90
22450;DHT22;11392;57.390;-2.468;2023-05-27T09:51:18;16.20;99.90
22450;DHT22;11392;57.390;-2.468;2023-05-27T09:53:46;16.20;99.90
22450;DHT22;11392;57.390;-2.468;2023-05-27T09:56:14;16.20;99.90
22450;DHT22;11392;57.390;-2.468;2023-05-27T09:58:42;16.30;99.90
22450;DHT22;11392;57.390;-2.468;2023-05-27T10:01:10;16.40;99.90
22450;DHT22;11392;57.390;-2.468;2023-05-27T10:03:38;16.40;99.90
22450;DHT22;11392;57.390;-2.468;2023-05-27T10:06:09;16.40;99.90
22450;DHT22;11392;57.390;-2.468;2023-05-27T10:08:41;16.50;99.90
22450;DHT22;11392;57.390;-2.468;2023-05-27T10:11:10;16.60;99.90
22450;DHT22;11392;57.390;-2.468;2023-05-27T10:13:38;16.50;99.90
22450;DHT22;11392;57.390;-2.468;2023-05-27T10:16:05;16.70;99.90
22450;DHT22;11392;57.390;-2.468;2023-05-27T10:18:32;16.70;99.90
22450;DHT22;11392;57.390;-2.468;2023-05-27T10:21:04;16.80;99.90
22450;DHT22;11392;57.390;-2.468;2023-05-27T10:23:31;17.00;99.90
22450;DHT22;11392;57.390;-2.468;2023-05-27T10:26:06;17.00;99.90
22450;DHT22;11392;57.390;-2.468;2023-05-27T10:28:35;17.20;99.90
22450;DHT22;11392;57.390;-2.468;2023-05-27T10:31:19;17.50;99.90
22450;DHT22;11392;57.390;-2.468;2023-05-27T10:33:49;17.60;99.90
22450;DHT22;11392;57.390;-2.468;2023-05-27T10:36:25;17.40;99.90
22450;DHT22;11392;57.390;-2.468;2023-05-27T10:39:05;17.60;99.90
22450;DHT22;11392;57.390;-2.468;2023-05-27T10:41:43;17.40;99.90
22450;DHT22;11392;57.390;-2.468;2023-05-27T10:44:10;17.60;99.90
22450;DHT22;11392;57.390;-2.468;2023-05-27T10:46:42;17.80;99.90
22450;DHT22;11392;57.390;-2.468;2023-05-27T10:49:12;17.90;99.90
22450;DHT22;11392;57.390;-2.468;2023-05-27T10:51:41;17.90;99.90
22450;DHT22;11392;57.390;-2.468;2023-05-27T10:54:08;17.70;99.90
22450;DHT22;11392;57.390;-2.468;2023-05-27T10:56:50;17.70;99.90
22450;DHT22;11392;57.390;-2.468;2023-05-27T10:59:22;17.70;99.90
22450;DHT22;11392;57.390;-2.468;2023-05-27T11:01:53;17.60;99.90
22450;DHT22;11392;57.390;-2.468;2023-05-27T11:04:20;17.70;99.90
22450;DHT22;11392;57.390;-2.468;2023-05-27T11:07:01;17.50;99.90
22450;DHT22;11392;57.390;-2.468;2023-05-27T11:09:51;17.50;99.90
22450;DHT22;11392;57.390;-2.468;2023-05-27T11:12:20;17.60;99.90
22450;DHT22;11392;57.390;-2.468;2023-05-27T11:14:52;17.70;99.90
22450;DHT22;11392;57.390;-2.468;2023-05-27T11:17:20;17.60;99.90
22450;DHT22;11392;57.390;-2.468;2023-05-27T11:19:48;17.40;99.90
22450;DHT22;11392;57.390;-2.468;2023-05-27T11:22:17;17.30;99.90
22450;DHT22;11392;57.390;-2.468;2023-05-27T11:27:22;16.70;99.90
22450;DHT22;11392;57.390;-2.468;2023-05-27T11:29:51;16.60;99.90
22450;DHT22;11392;57.390;-2.468;2023-05-27T11:32:19;16.40;99.90
22450;DHT22;11392;57.390;-2.468;2023-05-27T11:34:47;16.20;99.90
22450;DHT22;11392;57.390;-2.468;2023-05-27T11:37:15;16.10;99.90
22450;DHT22;11392;57.390;-2.468;2023-05-27T11:39:50;16.10;99.90
22450;DHT22;11392;57.390;-2.468;2023-05-27T11:42:22;16.20;99.90
22450;DHT22;11392;57.390;-2.468;2023-05-27T11:44:51;16.40;99.90
22450;DHT22;11392;57.390;-2.468;2023-05-27T11:47:19;16.40;99.90
22450;DHT22;11392;57.390;-2.468;2023-05-27T11:49:51;16.50;99.90
22450;DHT22;11392;57.390;-2.468;2023-05-27T11:52:19;16.60;99.90
22450;DHT22;11392;57.390;-2.468;2023-05-27T11:54:49;16.70;99.90
22450;DHT22;11392;57.390;-2.468;2023-05-27T11:57:24;16.70;99.90
22450;DHT22;11392;57.390;-2.468;2023-05-27T11:59:52;16.60;99.90
22450;DHT22;11392;57.390;-2.468;2023-05-27T12:02:19;16.70;99.90
22450;DHT22;11392;57.390;-2.468;2023-05-27T12:04:48;16.70;99.90
22450;DHT22;11392;57.390;-2.468;2023-05-27T12:07:15;16.50;99.90
22450;DHT22;11392;57.390;-2.468;2023-05-27T12:09:47;16.50;99.90
22450;DHT22;11392;57.390;-2.468;2023-05-27T12:12:18;16.70;99.90
22450;DHT22;11392;57.390;-2.468;2023-05-27T12:14:45;16.90;99.90
22450;DHT22;11392;57.390;-2.468;2023-05-27T12:17:13;17.00;99.90
22450;DHT22;11392;57.390;-2.468;2023-05-27T12:19:40;16.80;99.90
22450;DHT22;11392;57.390;-2.468;2023-05-27T12:22:07;16.80;99.90
22450;DHT22;11392;57.390;-2.468;2023-05-27T12:24:34;16.70;99.90
22450;DHT22;11392;57.390;-2.468;2023-05-27T12:27:01;16.80;99.90
22450;DHT22;11392;57.390;-2.468;2023-05-27T12:29:29;17.00;99.90
22450;DHT22;11392;57.390;-2.468;2023-05-27T12:31:57;16.90;99.90
22450;DHT22;11392;57.390;-2.468;2023-05-27T12:34:24;16.90;99.90
22450;DHT22;11392;57.390;-2.468;2023-05-27T12:36:52;17.00;99.90
22450;DHT22;11392;57.390;-2.468;2023-05-27T12:39:19;17.20;99.90
22450;DHT22;11392;57.390;-2.468;2023-05-27T12:41:47;17.50;99.90
22450;DHT22;11392;57.390;-2.468;2023-05-27T12:44:15;17.60;99.90
22450;DHT22;11392;57.390;-2.468;2023-05-27T12:46:42;17.90;99.90
22450;DHT22;11392;57.390;-2.468;2023-05-27T12:49:10;18.20;99.90
22450;DHT22;11392;57.390;-2.468;2023-05-27T12:51:37;18.70;99.90
22450;DHT22;11392;57.390;-2.468;2023-05-27T12:54:05;18.70;99.90
22450;DHT22;11392;57.390;-2.468;2023-05-27T12:56:32;18.40;99.90
22450;DHT22;11392;57.390;-2.468;2023-05-27T12:59:00;18.40;99.90
22450;DHT22;11392;57.390;-2.468;2023-05-27T13:01:27;18.60;99.90
22450;DHT22;11392;57.390;-2.468;2023-05-27T13:03:55;18.50;99.90
22450;DHT22;11392;57.390;-2.468;2023-05-27T13:06:23;18.00;99.90
22450;DHT22;11392;57.390;-2.468;2023-05-27T13:08:50;18.20;99.90
22450;DHT22;11392;57.390;-2.468;2023-05-27T13:11:17;18.70;99.90
22450;DHT22;11392;57.390;-2.468;2023-05-27T13:13:44;19.30;99.90
22450;DHT22;11392;57.390;-2.468;2023-05-27T13:16:11;19.70;99.90
22450;DHT22;11392;57.390;-2.468;2023-05-27T13:18:39;20.10;99.90
22450;DHT22;11392;57.390;-2.468;2023-05-27T13:21:06;20.60;99.90
22450;DHT22;11392;57.390;-2.468;2023-05-27T13:23:33;20.40;99.90
22450;DHT22;11392;57.390;-2.468;2023-05-27T13:26:01;20.60;99.90
22450;DHT22;11392;57.390;-2.468;2023-05-27T13:28:28;21.20;99.90
22450;DHT22;11392;57.390;-2.468;2023-05-27T13:30:55;21.00;99.90
22450;DHT22;11392;57.390;-2.468;2023-05-27T13:33:23;21.10;99.90
22450;DHT22;11392;57.390;-2.468;2023-05-27T13:35:50;21.30;99.90
22450;DHT22;11392;57.390;-2.468;2023-05-27T13:38:18;21.10;99.90
22450;DHT22;11392;57.390;-2.468;2023-05-27T13:40:45;20.70;99.90
22450;DHT22;11392;57.390;-2.468;2023-05-27T13:43:12;20.50;99.90
22450;DHT22;11392;57.390;-2.468;2023-05-27T13:45:39;19.50;99.90
22450;DHT22;11392;57.390;-2.468;2023-05-27T13:48:06;19.80;99.90
22450;DHT22;11392;57.390;-2.468;2023-05-27T13:50:33;19.90;99.90
22450;DHT22;11392;57.390;-2.468;2023-05-27T13:53:01;19.60;99.90
22450;DHT22;11392;57.390;-2.468;2023-05-27T13:55:29;19.30;99.90
22450;DHT22;11392;57.390;-2.468;2023-05-27T13:57:57;18.90;99.90
22450;DHT22;11392;57.390;-2.468;2023-05-27T14:00:24;18.80;99.90
22450;DHT22;11392;57.390;-2.468;2023-05-27T14:02:52;18.60;99.90
22450;DHT22;11392;57.390;-2.468;2023-05-27T14:05:21;18.40;99.90
22450;DHT22;11392;57.390;-2.468;2023-05-27T14:07:48;18.10;99.90
22450;DHT22;11392;57.390;-2.468;2023-05-27T14:10:15;18.20;99.90
22450;DHT22;11392;57.390;-2.468;2023-05-27T14:12:42;18.30;99.90
22450;DHT22;11392;57.390;-2.468;2023-05-27T14:15:10;18.90;99.90
22450;DHT22;11392;57.390;-2.468;2023-05-27T14:17:38;19.10;99.90
22450;DHT22;11392;57.390;-2.468;2023-05-27T14:20:05;19.60;99.90
22450;DHT22;11392;57.390;-2.468;2023-05-27T14:22:38;20.00;99.90
22450;DHT22;11392;57.390;-2.468;2023-05-27T14:25:06;19.60;99.90
22450;DHT22;11392;57.390;-2.468;2023-05-27T14:27:33;19.40;99.90
22450;DHT22;11392;57.390;-2.468;2023-05-27T14:30:01;19.00;99.90
22450;DHT22;11392;57.390;-2.468;2023-05-27T14:32:28;19.30;99.90
22450;DHT22;11392;57.390;-2.468;2023-05-27T14:34:55;19.20;99.90
22450;DHT22;11392;57.390;-2.468;2023-05-27T14:37:23;19.10;99.90
22450;DHT22;11392;57.390;-2.468;2023-05-27T14:39:51;19.00;99.90
22450;DHT22;11392;57.390;-2.468;2023-05-27T14:42:19;19.10;99.90
22450;DHT22;11392;57.390;-2.468;2023-05-27T14:44:47;19.10;99.90
22450;DHT22;11392;57.390;-2.468;2023-05-27T14:47:14;19.10;99.90
22450;DHT22;11392;57.390;-2.468;2023-05-27T14:49:41;18.90;99.90
22450;DHT22;11392;57.390;-2.468;2023-05-27T14:52:08;19.00;99.90
22450;DHT22;11392;57.390;-2.468;2023-05-27T14:54:35;19.00;99.90
22450;DHT22;11392;57.390;-2.468;2023-05-27T14:57:02;18.70;99.90
22450;DHT22;11392;57.390;-2.468;2023-05-27T14:59:30;18.50;99.90
22450;DHT22;11392;57.390;-2.468;2023-05-27T15:01:57;18.40;99.90
22450;DHT22;11392;57.390;-2.468;2023-05-27T15:04:24;18.30;99.90
22450;DHT22;11392;57.390;-2.468;2023-05-27T15:06:51;18.70;99.90
22450;DHT22;11392;57.390;-2.468;2023-05-27T15:09:18;19.30;99.90
22450;DHT22;11392;57.390;-2.468;2023-05-27T15:11:46;19.70;99.90
22450;DHT22;11392;57.390;-2.468;2023-05-27T15:14:13;19.40;99.90
22450;DHT22;11392;57.390;-2.468;2023-05-27T15:16:40;19.40;99.90
22450;DHT22;11392;57.390;-2.468;2023-05-27T15:19:07;20.00;99.90
22450;DHT22;11392;57.390;-2.468;2023-05-27T15:21:34;19.30;99.90
22450;DHT22;11392;57.390;-2.468;2023-05-27T15:24:02;19.20;99.90
22450;DHT22;11392;57.390;-2.468;2023-05-27T15:26:30;19.30;99.90
22450;DHT22;11392;57.390;-2.468;2023-05-27T15:28:57;19.10;99.90
22450;DHT22;11392;57.390;-2.468;2023-05-27T15:31:25;18.70;99.90
22450;DHT22;11392;57.390;-2.468;2023-05-27T15:33:53;18.50;99.90
22450;DHT22;11392;57.390;-2.468;2023-05-27T15:36:20;18.20;99.90
22450;DHT22;11392;57.390;-2.468;2023-05-27T15:38:47;18.30;99.90
22450;DHT22;11392;57.390;-2.468;2023-05-27T15:41:14;18.20;99.90
22450;DHT22;11392;57.390;-2.468;2023-05-27T15:43:45;18.30;99.90
22450;DHT22;11392;57.390;-2.468;2023-05-27T15:46:15;18.10;99.90
22450;DHT22;11392;57.390;-2.468;2023-05-27T15:48:44;17.30;99.90
22450;DHT22;11392;57.390;-2.468;2023-05-27T15:51:11;16.50;99.90
22450;DHT22;11392;57.390;-2.468;2023-05-27T15:53:39;16.40;99.90
22450;DHT22;11392;57.390;-2.468;2023-05-27T15:56:06;17.10;99.90
22450;DHT22;11392;57.390;-2.468;2023-05-27T15:58:33;17.70;99.90
22450;DHT22;11392;57.390;-2.468;2023-05-27T16:01:00;17.90;99.90
22450;DHT22;11392;57.390;-2.468;2023-05-27T16:03:28;18.40;99.90
22450;DHT22;11392;57.390;-2.468;2023-05-27T16:05:55;17.70;99.90
22450;DHT22;11392;57.390;-2.468;2023-05-27T16:08:22;16.90;99.90
22450;DHT22;11392;57.390;-2.468;2023-05-27T16:10:51;16.30;99.90
22450;DHT22;11392;57.390;-2.468;2023-05-27T16:13:23;16.70;99.90
22450;DHT22;11392;57.390;-2.468;2023-05-27T16:15:50;17.10;99.90
22450;DHT22;11392;57.390;-2.468;2023-05-27T16:18:18;17.60;99.90
22450;DHT22;11392;57.390;-2.468;2023-05-27T16:20:47;17.50;99.90
22450;DHT22;11392;57.390;-2.468;2023-05-27T16:23:15;17.20;99.90
22450;DHT22;11392;57.390;-2.468;2023-05-27T16:25:43;17.00;99.90
22450;DHT22;11392;57.390;-2.468;2023-05-27T16:28:10;16.70;99.90
22450;DHT22;11392;57.390;-2.468;2023-05-27T16:30:37;16.30;99.90
22450;DHT22;11392;57.390;-2.468;2023-05-27T16:33:04;16.10;99.90
22450;DHT22;11392;57.390;-2.468;2023-05-27T16:35:31;16.10;99.90
22450;DHT22;11392;57.390;-2.468;2023-05-27T16:37:58;16.30;99.90
22450;DHT22;11392;57.390;-2.468;2023-05-27T16:40:26;16.30;99.90
22450;DHT22;11392;57.390;-2.468;2023-05-27T16:42:53;16.30;99.90
22450;DHT22;11392;57.390;-2.468;2023-05-27T16:45:20;16.50;99.90